SFO weather

San Francisco International Airport
San Francisco, California, United States

Public forecast

Using degrees Fahrenheit for public forecast. Weather courtesy of forecast.io.

METAR (pilot weather report)

Retrieved 2018/06/18 13:56 UTC (1 hour ago):

KSFO 181356Z 24006KT 10SM FEW015 OVC017 16/11 A3004 RMK AO2 SLP171 T01560106

TAF (pilot weather forecast)

Retrieved 2018/06/18 12:27 UTC (3 hours ago):

TAF KSFO 181124Z 1812/1918 27006KT P6SM BKN015 FM181730 27005KT P6SM SCT020 FM181900 26007KT P6SM FEW022 FM182200 26015KT P6SM FEW025 FM190500 28010KT P6SM SCT022 FM191000 28006KT P6SM BKN019 FM191700 28006KT P6SM SCT020